sensor_id;sensor_type;location;lat;lon;timestamp;P1;durP1;ratioP1;P2;durP2;ratioP2
84144;SDS011;74264;48.988;12.040;2023-11-22T00:00:09;2.83;;;2.63;;
84144;SDS011;74264;48.988;12.040;2023-11-22T00:02:35;3.13;;;2.78;;
84144;SDS011;74264;48.988;12.040;2023-11-22T00:05:01;2.72;;;2.53;;
84144;SDS011;74264;48.988;12.040;2023-11-22T00:07:26;3.17;;;2.72;;
84144;SDS011;74264;48.988;12.040;2023-11-22T00:09:55;2.92;;;2.63;;
84144;SDS011;74264;48.988;12.040;2023-11-22T00:12:21;4.28;;;3.10;;
84144;SDS011;74264;48.988;12.040;2023-11-22T00:14:48;3.20;;;3.00;;
84144;SDS011;74264;48.988;12.040;2023-11-22T00:17:14;3.13;;;2.92;;
84144;SDS011;74264;48.988;12.040;2023-11-22T00:19:45;3.08;;;2.88;;
84144;SDS011;74264;48.988;12.040;2023-11-22T00:22:11;2.90;;;2.70;;
84144;SDS011;74264;48.988;12.040;2023-11-22T00:24:39;4.15;;;2.75;;
84144;SDS011;74264;48.988;12.040;2023-11-22T00:27:05;2.88;;;2.60;;
84144;SDS011;74264;48.988;12.040;2023-11-22T00:29:31;3.00;;;2.80;;
84144;SDS011;74264;48.988;12.040;2023-11-22T00:31:58;2.20;;;2.10;;
84144;SDS011;74264;48.988;12.040;2023-11-22T00:34:24;2.35;;;2.25;;
84144;SDS011;74264;48.988;12.040;2023-11-22T00:36:50;3.00;;;2.40;;
84144;SDS011;74264;48.988;12.040;2023-11-22T00:39:16;2.75;;;2.22;;
84144;SDS011;74264;48.988;12.040;2023-11-22T00:41:42;2.97;;;2.65;;
84144;SDS011;74264;48.988;12.040;2023-11-22T00:44:09;4.60;;;2.63;;
84144;SDS011;74264;48.988;12.040;2023-11-22T00:46:35;5.28;;;2.92;;
84144;SDS011;74264;48.988;12.040;2023-11-22T00:49:03;2.35;;;2.22;;
84144;SDS011;74264;48.988;12.040;2023-11-22T00:51:30;3.63;;;2.88;;
84144;SDS011;74264;48.988;12.040;2023-11-22T00:53:57;2.10;;;2.00;;
84144;SDS011;74264;48.988;12.040;2023-11-22T00:56:23;2.47;;;2.25;;
84144;SDS011;74264;48.988;12.040;2023-11-22T00:58:49;2.35;;;2.25;;
84144;SDS011;74264;48.988;12.040;2023-11-22T01:01:15;4.32;;;2.60;;
84144;SDS011;74264;48.988;12.040;2023-11-22T01:03:42;2.17;;;1.92;;
84144;SDS011;74264;48.988;12.040;2023-11-22T01:06:07;2.38;;;2.22;;
84144;SDS011;74264;48.988;12.040;2023-11-22T01:08:35;2.50;;;2.30;;
84144;SDS011;74264;48.988;12.040;2023-11-22T01:11:01;2.20;;;2.10;;
84144;SDS011;74264;48.988;12.040;2023-11-22T01:13:29;5.78;;;2.67;;
84144;SDS011;74264;48.988;12.040;2023-11-22T01:15:55;2.75;;;2.20;;
84144;SDS011;74264;48.988;12.040;2023-11-22T01:18:21;2.58;;;2.38;;
84144;SDS011;74264;48.988;12.040;2023-11-22T01:20:47;2.05;;;1.90;;
84144;SDS011;74264;48.988;12.040;2023-11-22T01:23:13;2.63;;;2.13;;
84144;SDS011;74264;48.988;12.040;2023-11-22T01:25:39;2.58;;;2.38;;
84144;SDS011;74264;48.988;12.040;2023-11-22T01:28:05;3.58;;;2.03;;
84144;SDS011;74264;48.988;12.040;2023-11-22T01:30:32;2.28;;;2.17;;
84144;SDS011;74264;48.988;12.040;2023-11-22T01:32:58;2.28;;;2.17;;
84144;SDS011;74264;48.988;12.040;2023-11-22T01:35:24;1.80;;;1.70;;
84144;SDS011;74264;48.988;12.040;2023-11-22T01:37:50;2.00;;;1.90;;
84144;SDS011;74264;48.988;12.040;2023-11-22T01:40:16;1.98;;;1.88;;
84144;SDS011;74264;48.988;12.040;2023-11-22T01:42:42;2.08;;;1.90;;
84144;SDS011;74264;48.988;12.040;2023-11-22T01:45:08;1.73;;;1.63;;
84144;SDS011;74264;48.988;12.040;2023-11-22T01:47:35;1.92;;;1.83;;
84144;SDS011;74264;48.988;12.040;2023-11-22T01:50:02;2.70;;;2.10;;
84144;SDS011;74264;48.988;12.040;2023-11-22T01:52:30;2.30;;;2.20;;
84144;SDS011;74264;48.988;12.040;2023-11-22T01:54:56;2.03;;;1.88;;
84144;SDS011;74264;48.988;12.040;2023-11-22T01:57:24;1.88;;;1.77;;
84144;SDS011;74264;48.988;12.040;2023-11-22T01:59:49;1.90;;;1.80;;
84144;SDS011;74264;48.988;12.040;2023-11-22T02:02:16;2.00;;;1.90;;
84144;SDS011;74264;48.988;12.040;2023-11-22T02:04:41;2.05;;;1.95;;
84144;SDS011;74264;48.988;12.040;2023-11-22T02:07:07;2.10;;;2.00;;
84144;SDS011;74264;48.988;12.040;2023-11-22T02:09:32;1.70;;;1.70;;
84144;SDS011;74264;48.988;12.040;2023-11-22T02:11:58;1.83;;;1.73;;
84144;SDS011;74264;48.988;12.040;2023-11-22T02:14:23;1.83;;;1.73;;
84144;SDS011;74264;48.988;12.040;2023-11-22T02:16:49;2.40;;;2.17;;
84144;SDS011;74264;48.988;12.040;2023-11-22T02:19:15;4.88;;;1.63;;
84144;SDS011;74264;48.988;12.040;2023-11-22T02:21:42;1.95;;;1.85;;
84144;SDS011;74264;48.988;12.040;2023-11-22T02:24:08;2.38;;;2.20;;
84144;SDS011;74264;48.988;12.040;2023-11-22T02:26:35;1.95;;;1.85;;
84144;SDS011;74264;48.988;12.040;2023-11-22T02:29:02;1.70;;;1.60;;
84144;SDS011;74264;48.988;12.040;2023-11-22T02:31:29;1.75;;;1.65;;
84144;SDS011;74264;48.988;12.040;2023-11-22T02:33:55;1.88;;;1.77;;
84144;SDS011;74264;48.988;12.040;2023-11-22T02:36:22;1.70;;;1.60;;
84144;SDS011;74264;48.988;12.040;2023-11-22T02:38:47;4.65;;;2.00;;
84144;SDS011;74264;48.988;12.040;2023-11-22T02:41:13;1.80;;;1.70;;
84144;SDS011;74264;48.988;12.040;2023-11-22T02:43:39;1.75;;;1.65;;
84144;SDS011;74264;48.988;12.040;2023-11-22T02:46:06;2.72;;;2.53;;
84144;SDS011;74264;48.988;12.040;2023-11-22T02:48:33;2.53;;;2.33;;
84144;SDS011;74264;48.988;12.040;2023-11-22T02:50:59;2.40;;;2.20;;
84144;SDS011;74264;48.988;12.040;2023-11-22T02:53:25;2.55;;;2.38;;
84144;SDS011;74264;48.988;12.040;2023-11-22T02:55:52;2.88;;;1.77;;
84144;SDS011;74264;48.988;12.040;2023-11-22T02:58:21;2.40;;;2.20;;
84144;SDS011;74264;48.988;12.040;2023-11-22T03:00:47;2.08;;;1.98;;
84144;SDS011;74264;48.988;12.040;2023-11-22T03:03:13;3.42;;;1.83;;
84144;SDS011;74264;48.988;12.040;2023-11-22T03:05:38;2.05;;;1.60;;
84144;SDS011;74264;48.988;12.040;2023-11-22T03:08:05;1.60;;;1.50;;
84144;SDS011;74264;48.988;12.040;2023-11-22T03:10:32;4.05;;;1.77;;
84144;SDS011;74264;48.988;12.040;2023-11-22T03:12:58;1.50;;;1.35;;
84144;SDS011;74264;48.988;12.040;2023-11-22T03:15:25;1.40;;;1.40;;
84144;SDS011;74264;48.988;12.040;2023-11-22T03:17:52;1.70;;;1.60;;
84144;SDS011;74264;48.988;12.040;2023-11-22T03:20:17;2.10;;;2.00;;
84144;SDS011;74264;48.988;12.040;2023-11-22T03:22:44;1.45;;;1.40;;
84144;SDS011;74264;48.988;12.040;2023-11-22T03:25:10;1.60;;;1.50;;
84144;SDS011;74264;48.988;12.040;2023-11-22T03:27:36;2.00;;;1.90;;
84144;SDS011;74264;48.988;12.040;2023-11-22T03:30:03;1.98;;;1.88;;
84144;SDS011;74264;48.988;12.040;2023-11-22T03:32:29;3.00;;;2.10;;
84144;SDS011;74264;48.988;12.040;2023-11-22T03:34:55;1.75;;;1.65;;
84144;SDS011;74264;48.988;12.040;2023-11-22T03:37:22;1.90;;;1.80;;
84144;SDS011;74264;48.988;12.040;2023-11-22T03:39:48;2.30;;;2.20;;
84144;SDS011;74264;48.988;12.040;2023-11-22T03:42:14;1.90;;;1.80;;
84144;SDS011;74264;48.988;12.040;2023-11-22T03:44:43;2.45;;;2.25;;
84144;SDS011;74264;48.988;12.040;2023-11-22T03:47:09;2.17;;;2.03;;
84144;SDS011;74264;48.988;12.040;2023-11-22T03:49:36;1.98;;;1.88;;
84144;SDS011;74264;48.988;12.040;2023-11-22T03:52:02;2.22;;;2.03;;
84144;SDS011;74264;48.988;12.040;2023-11-22T03:54:28;2.22;;;2.13;;
84144;SDS011;74264;48.988;12.040;2023-11-22T03:56:54;1.98;;;1.88;;
84144;SDS011;74264;48.988;12.040;2023-11-22T03:59:19;2.60;;;2.50;;
84144;SDS011;74264;48.988;12.040;2023-11-22T04:01:45;7.53;;;2.55;;
84144;SDS011;74264;48.988;12.040;2023-11-22T04:04:11;2.50;;;2.30;;
84144;SDS011;74264;48.988;12.040;2023-11-22T04:06:36;3.20;;;2.90;;
84144;SDS011;74264;48.988;12.040;2023-11-22T04:09:02;2.25;;;2.05;;
84144;SDS011;74264;48.988;12.040;2023-11-22T04:11:28;4.57;;;2.28;;
84144;SDS011;74264;48.988;12.040;2023-11-22T04:13:54;2.42;;;2.28;;
84144;SDS011;74264;48.988;12.040;2023-11-22T04:16:21;2.30;;;2.10;;
84144;SDS011;74264;48.988;12.040;2023-11-22T04:18:47;2.25;;;2.15;;
84144;SDS011;74264;48.988;12.040;2023-11-22T04:21:12;4.68;;;2.17;;
84144;SDS011;74264;48.988;12.040;2023-11-22T04:23:38;2.30;;;2.10;;
84144;SDS011;74264;48.988;12.040;2023-11-22T04:26:03;2.55;;;2.42;;
84144;SDS011;74264;48.988;12.040;2023-11-22T04:28:31;2.30;;;2.20;;
84144;SDS011;74264;48.988;12.040;2023-11-22T04:30:56;2.50;;;2.40;;
84144;SDS011;74264;48.988;12.040;2023-11-22T04:33:22;2.80;;;2.60;;
84144;SDS011;74264;48.988;12.040;2023-11-22T04:35:48;2.35;;;2.20;;
84144;SDS011;74264;48.988;12.040;2023-11-22T04:38:14;2.45;;;2.35;;
84144;SDS011;74264;48.988;12.040;2023-11-22T04:40:40;2.67;;;2.50;;
84144;SDS011;74264;48.988;12.040;2023-11-22T04:43:08;2.47;;;2.38;;
84144;SDS011;74264;48.988;12.040;2023-11-22T04:45:33;2.33;;;2.22;;
84144;SDS011;74264;48.988;12.040;2023-11-22T04:47:59;2.92;;;2.60;;
84144;SDS011;74264;48.988;12.040;2023-11-22T04:50:25;3.47;;;3.17;;
84144;SDS011;74264;48.988;12.040;2023-11-22T04:52:51;2.67;;;2.47;;
84144;SDS011;74264;48.988;12.040;2023-11-22T04:55:17;2.22;;;2.13;;
84144;SDS011;74264;48.988;12.040;2023-11-22T04:57:45;2.25;;;2.15;;
84144;SDS011;74264;48.988;12.040;2023-11-22T05:00:11;2.42;;;2.25;;
84144;SDS011;74264;48.988;12.040;2023-11-22T05:02:37;2.45;;;2.25;;
84144;SDS011;74264;48.988;12.040;2023-11-22T05:05:03;2.50;;;2.30;;
84144;SDS011;74264;48.988;12.040;2023-11-22T05:07:29;2.00;;;1.90;;
84144;SDS011;74264;48.988;12.040;2023-11-22T05:09:54;5.72;;;2.30;;
84144;SDS011;74264;48.988;12.040;2023-11-22T05:12:20;2.15;;;2.00;;
84144;SDS011;74264;48.988;12.040;2023-11-22T05:14:46;2.70;;;2.50;;
84144;SDS011;74264;48.988;12.040;2023-11-22T05:17:11;2.55;;;2.35;;
84144;SDS011;74264;48.988;12.040;2023-11-22T05:19:37;2.10;;;1.90;;
84144;SDS011;74264;48.988;12.040;2023-11-22T05:22:04;2.28;;;2.10;;
84144;SDS011;74264;48.988;12.040;2023-11-22T05:24:30;2.45;;;2.22;;
84144;SDS011;74264;48.988;12.040;2023-11-22T05:26:56;2.65;;;2.45;;
84144;SDS011;74264;48.988;12.040;2023-11-22T05:29:24;2.22;;;2.10;;
84144;SDS011;74264;48.988;12.040;2023-11-22T05:31:49;2.10;;;2.00;;
84144;SDS011;74264;48.988;12.040;2023-11-22T05:34:15;1.92;;;1.83;;
84144;SDS011;74264;48.988;12.040;2023-11-22T05:36:41;2.45;;;2.35;;
84144;SDS011;74264;48.988;12.040;2023-11-22T05:39:06;2.20;;;2.10;;
84144;SDS011;74264;48.988;12.040;2023-11-22T05:41:32;1.92;;;1.85;;
84144;SDS011;74264;48.988;12.040;2023-11-22T05:43:57;2.25;;;2.15;;
84144;SDS011;74264;48.988;12.040;2023-11-22T05:46:23;2.20;;;2.10;;
84144;SDS011;74264;48.988;12.040;2023-11-22T05:48:53;2.15;;;2.05;;
84144;SDS011;74264;48.988;12.040;2023-11-22T05:51:20;2.22;;;2.03;;
84144;SDS011;74264;48.988;12.040;2023-11-22T05:53:46;1.98;;;1.88;;
84144;SDS011;74264;48.988;12.040;2023-11-22T05:56:12;2.13;;;2.03;;
84144;SDS011;74264;48.988;12.040;2023-11-22T05:58:38;2.40;;;2.30;;
84144;SDS011;74264;48.988;12.040;2023-11-22T06:01:04;2.20;;;2.03;;
84144;SDS011;74264;48.988;12.040;2023-11-22T06:03:31;2.42;;;2.22;;
84144;SDS011;74264;48.988;12.040;2023-11-22T06:05:57;2.13;;;2.03;;
84144;SDS011;74264;48.988;12.040;2023-11-22T06:08:23;2.10;;;2.00;;
84144;SDS011;74264;48.988;12.040;2023-11-22T06:10:49;2.22;;;2.03;;
84144;SDS011;74264;48.988;12.040;2023-11-22T06:13:14;2.05;;;1.95;;
84144;SDS011;74264;48.988;12.040;2023-11-22T06:15:40;1.90;;;1.80;;
84144;SDS011;74264;48.988;12.040;2023-11-22T06:18:06;1.80;;;1.70;;
84144;SDS011;74264;48.988;12.040;2023-11-22T06:20:32;2.28;;;2.08;;
84144;SDS011;74264;48.988;12.040;2023-11-22T06:22:58;2.17;;;2.08;;
84144;SDS011;74264;48.988;12.040;2023-11-22T06:25:24;6.05;;;2.35;;
84144;SDS011;74264;48.988;12.040;2023-11-22T06:27:49;5.60;;;2.17;;
84144;SDS011;74264;48.988;12.040;2023-11-22T06:30:15;2.17;;;2.08;;
84144;SDS011;74264;48.988;12.040;2023-11-22T06:32:41;2.22;;;2.13;;
84144;SDS011;74264;48.988;12.040;2023-11-22T06:35:08;2.80;;;2.60;;
84144;SDS011;74264;48.988;12.040;2023-11-22T06:37:35;2.90;;;2.70;;
84144;SDS011;74264;48.988;12.040;2023-11-22T06:40:01;2.70;;;2.50;;
84144;SDS011;74264;48.988;12.040;2023-11-22T06:42:26;4.25;;;2.45;;
84144;SDS011;74264;48.988;12.040;2023-11-22T06:44:52;2.65;;;2.55;;
84144;SDS011;74264;48.988;12.040;2023-11-22T06:47:18;3.58;;;3.05;;
84144;SDS011;74264;48.988;12.040;2023-11-22T06:49:44;4.03;;;2.70;;
84144;SDS011;74264;48.988;12.040;2023-11-22T06:52:10;3.40;;;3.08;;
84144;SDS011;74264;48.988;12.040;2023-11-22T06:54:35;3.78;;;2.60;;
84144;SDS011;74264;48.988;12.040;2023-11-22T06:57:04;3.47;;;3.17;;
84144;SDS011;74264;48.988;12.040;2023-11-22T06:59:30;2.80;;;2.60;;
84144;SDS011;74264;48.988;12.040;2023-11-22T07:01:55;3.70;;;2.60;;
84144;SDS011;74264;48.988;12.040;2023-11-22T07:04:21;2.53;;;2.42;;
84144;SDS011;74264;48.988;12.040;2023-11-22T07:06:48;4.47;;;2.97;;
84144;SDS011;74264;48.988;12.040;2023-11-22T07:09:14;3.10;;;2.90;;
84144;SDS011;74264;48.988;12.040;2023-11-22T07:11:40;5.95;;;2.67;;
84144;SDS011;74264;48.988;12.040;2023-11-22T07:14:06;2.60;;;2.40;;
84144;SDS011;74264;48.988;12.040;2023-11-22T07:16:34;2.90;;;2.67;;
84144;SDS011;74264;48.988;12.040;2023-11-22T07:19:00;2.53;;;2.33;;
84144;SDS011;74264;48.988;12.040;2023-11-22T07:21:32;2.88;;;2.53;;
84144;SDS011;74264;48.988;12.040;2023-11-22T07:23:58;2.85;;;2.70;;
84144;SDS011;74264;48.988;12.040;2023-11-22T07:26:27;3.05;;;2.85;;
84144;SDS011;74264;48.988;12.040;2023-11-22T07:28:53;2.95;;;2.70;;
84144;SDS011;74264;48.988;12.040;2023-11-22T07:31:18;3.30;;;3.10;;
84144;SDS011;74264;48.988;12.040;2023-11-22T07:33:45;3.20;;;3.00;;
84144;SDS011;74264;48.988;12.040;2023-11-22T07:36:11;3.08;;;2.83;;
84144;SDS011;74264;48.988;12.040;2023-11-22T07:38:40;2.88;;;2.67;;
84144;SDS011;74264;48.988;12.040;2023-11-22T07:41:06;2.88;;;2.67;;
84144;SDS011;74264;48.988;12.040;2023-11-22T07:43:35;3.30;;;3.10;;
84144;SDS011;74264;48.988;12.040;2023-11-22T07:46:05;3.78;;;3.47;;
84144;SDS011;74264;48.988;12.040;2023-11-22T07:48:38;3.33;;;3.10;;
84144;SDS011;74264;48.988;12.040;2023-11-22T07:51:06;4.20;;;3.90;;
84144;SDS011;74264;48.988;12.040;2023-11-22T07:53:32;3.97;;;3.67;;
84144;SDS011;74264;48.988;12.040;2023-11-22T07:56:02;3.95;;;3.53;;
84144;SDS011;74264;48.988;12.040;2023-11-22T07:58:33;4.10;;;3.78;;
84144;SDS011;74264;48.988;12.040;2023-11-22T08:00:59;4.03;;;3.63;;
84144;SDS011;74264;48.988;12.040;2023-11-22T08:03:25;4.25;;;3.85;;
84144;SDS011;74264;48.988;12.040;2023-11-22T08:05:51;5.85;;;4.90;;
84144;SDS011;74264;48.988;12.040;2023-11-22T08:08:20;5.28;;;4.88;;
84144;SDS011;74264;48.988;12.040;2023-11-22T08:10:47;7.57;;;5.53;;
84144;SDS011;74264;48.988;12.040;2023-11-22T08:13:14;8.50;;;3.75;;
84144;SDS011;74264;48.988;12.040;2023-11-22T08:15:41;4.00;;;3.70;;
84144;SDS011;74264;48.988;12.040;2023-11-22T08:18:07;7.10;;;5.97;;
84144;SDS011;74264;48.988;12.040;2023-11-22T08:20:33;5.60;;;5.00;;
84144;SDS011;74264;48.988;12.040;2023-11-22T08:22:58;5.72;;;4.50;;
84144;SDS011;74264;48.988;12.040;2023-11-22T08:25:24;6.18;;;4.82;;
84144;SDS011;74264;48.988;12.040;2023-11-22T08:27:49;5.80;;;5.30;;
84144;SDS011;74264;48.988;12.040;2023-11-22T08:30:15;7.93;;;5.20;;
84144;SDS011;74264;48.988;12.040;2023-11-22T08:32:47;5.60;;;5.10;;
84144;SDS011;74264;48.988;12.040;2023-11-22T08:35:18;4.68;;;3.95;;
84144;SDS011;74264;48.988;12.040;2023-11-22T08:37:45;6.18;;;4.60;;
84144;SDS011;74264;48.988;12.040;2023-11-22T08:40:12;7.13;;;4.82;;
84144;SDS011;74264;48.988;12.040;2023-11-22T08:42:41;5.85;;;4.97;;
84144;SDS011;74264;48.988;12.040;2023-11-22T08:45:07;5.43;;;4.88;;
84144;SDS011;74264;48.988;12.040;2023-11-22T08:47:34;5.43;;;4.93;;
84144;SDS011;74264;48.988;12.040;2023-11-22T08:50:00;5.47;;;4.97;;
84144;SDS011;74264;48.988;12.040;2023-11-22T08:52:28;6.75;;;5.22;;
84144;SDS011;74264;48.988;12.040;2023-11-22T08:54:56;6.05;;;5.03;;
84144;SDS011;74264;48.988;12.040;2023-11-22T08:57:21;6.13;;;5.20;;
84144;SDS011;74264;48.988;12.040;2023-11-22T08:59:48;7.55;;;6.10;;
84144;SDS011;74264;48.988;12.040;2023-11-22T09:02:14;5.53;;;4.97;;
84144;SDS011;74264;48.988;12.040;2023-11-22T09:04:40;6.45;;;5.40;;
84144;SDS011;74264;48.988;12.040;2023-11-22T09:07:07;6.45;;;5.47;;
84144;SDS011;74264;48.988;12.040;2023-11-22T09:09:33;8.63;;;5.53;;
84144;SDS011;74264;48.988;12.040;2023-11-22T09:12:00;6.65;;;5.45;;
84144;SDS011;74264;48.988;12.040;2023-11-22T09:14:26;9.20;;;5.88;;
84144;SDS011;74264;48.988;12.040;2023-11-22T09:16:52;8.25;;;6.32;;
84144;SDS011;74264;48.988;12.040;2023-11-22T09:19:24;8.57;;;6.53;;
84144;SDS011;74264;48.988;12.040;2023-11-22T09:21:50;9.65;;;5.55;;
84144;SDS011;74264;48.988;12.040;2023-11-22T09:24:16;7.45;;;6.00;;
84144;SDS011;74264;48.988;12.040;2023-11-22T09:26:42;5.72;;;5.22;;
84144;SDS011;74264;48.988;12.040;2023-11-22T09:29:09;6.68;;;4.70;;
84144;SDS011;74264;48.988;12.040;2023-11-22T09:31:39;6.45;;;5.57;;
84144;SDS011;74264;48.988;12.040;2023-11-22T09:34:05;6.30;;;5.70;;
84144;SDS011;74264;48.988;12.040;2023-11-22T09:36:30;6.13;;;5.22;;
84144;SDS011;74264;48.988;12.040;2023-11-22T09:38:59;6.82;;;5.60;;
84144;SDS011;74264;48.988;12.040;2023-11-22T09:41:25;6.97;;;5.03;;
84144;SDS011;74264;48.988;12.040;2023-11-22T09:43:52;5.88;;;5.35;;
84144;SDS011;74264;48.988;12.040;2023-11-22T09:46:19;6.78;;;5.10;;
84144;SDS011;74264;48.988;12.040;2023-11-22T09:48:48;9.73;;;6.93;;
84144;SDS011;74264;48.988;12.040;2023-11-22T09:51:20;7.47;;;5.35;;
84144;SDS011;74264;48.988;12.040;2023-11-22T09:53:53;6.60;;;5.40;;
84144;SDS011;74264;48.988;12.040;2023-11-22T09:56:22;9.15;;;5.32;;
84144;SDS011;74264;48.988;12.040;2023-11-22T09:58:51;7.00;;;5.35;;
84144;SDS011;74264;48.988;12.040;2023-11-22T10:01:21;6.60;;;5.75;;
84144;SDS011;74264;48.988;12.040;2023-11-22T10:03:48;8.65;;;5.82;;
84144;SDS011;74264;48.988;12.040;2023-11-22T10:06:14;9.63;;;6.38;;
84144;SDS011;74264;48.988;12.040;2023-11-22T10:08:41;7.28;;;6.40;;
84144;SDS011;74264;48.988;12.040;2023-11-22T10:11:07;7.45;;;5.82;;
84144;SDS011;74264;48.988;12.040;2023-11-22T10:13:33;8.23;;;6.40;;
84144;SDS011;74264;48.988;12.040;2023-11-22T10:16:12;7.72;;;5.97;;
84144;SDS011;74264;48.988;12.040;2023-11-22T10:18:47;5.60;;;4.97;;
84144;SDS011;74264;48.988;12.040;2023-11-22T10:24:00;5.65;;;4.88;;
84144;SDS011;74264;48.988;12.040;2023-11-22T10:26:27;8.98;;;6.22;;
84144;SDS011;74264;48.988;12.040;2023-11-22T10:28:53;11.45;;;6.85;;
84144;SDS011;74264;48.988;12.040;2023-11-22T10:31:20;8.75;;;7.05;;
84144;SDS011;74264;48.988;12.040;2023-11-22T10:33:47;6.50;;;5.78;;
84144;SDS011;74264;48.988;12.040;2023-11-22T10:36:13;5.72;;;5.13;;
84144;SDS011;74264;48.988;12.040;2023-11-22T10:38:40;6.30;;;5.60;;
84144;SDS011;74264;48.988;12.040;2023-11-22T10:41:08;5.13;;;4.70;;
84144;SDS011;74264;48.988;12.040;2023-11-22T10:43:34;5.15;;;4.75;;
84144;SDS011;74264;48.988;12.040;2023-11-22T10:46:03;4.57;;;4.10;;
84144;SDS011;74264;48.988;12.040;2023-11-22T10:48:35;4.40;;;4.10;;
84144;SDS011;74264;48.988;12.040;2023-11-22T10:51:02;6.53;;;4.53;;
84144;SDS011;74264;48.988;12.040;2023-11-22T10:56:01;5.25;;;4.38;;
84144;SDS011;74264;48.988;12.040;2023-11-22T10:58:39;3.92;;;3.63;;
84144;SDS011;74264;48.988;12.040;2023-11-22T11:01:17;5.15;;;4.05;;
84144;SDS011;74264;48.988;12.040;2023-11-22T11:04:33;12.25;;;5.95;;
84144;SDS011;74264;48.988;12.040;2023-11-22T11:06:43;5.10;;;4.47;;
84144;SDS011;74264;48.988;12.040;2023-11-22T11:09:12;5.03;;;4.18;;
84144;SDS011;74264;48.988;12.040;2023-11-22T11:11:40;4.43;;;4.03;;
84144;SDS011;74264;48.988;12.040;2023-11-22T11:14:06;5.75;;;4.35;;
84144;SDS011;74264;48.988;12.040;2023-11-22T11:16:37;4.65;;;4.25;;
84144;SDS011;74264;48.988;12.040;2023-11-22T11:19:06;4.43;;;4.10;;
84144;SDS011;74264;48.988;12.040;2023-11-22T11:21:35;4.22;;;3.83;;
84144;SDS011;74264;48.988;12.040;2023-11-22T11:24:00;3.85;;;3.55;;
84144;SDS011;74264;48.988;12.040;2023-11-22T11:26:28;4.57;;;4.13;;
84144;SDS011;74264;48.988;12.040;2023-11-22T11:28:57;4.00;;;3.80;;
84144;SDS011;74264;48.988;12.040;2023-11-22T11:31:23;4.55;;;4.15;;
84144;SDS011;74264;48.988;12.040;2023-11-22T11:36:28;4.90;;;4.05;;
84144;SDS011;74264;48.988;12.040;2023-11-22T11:38:57;4.70;;;4.30;;
84144;SDS011;74264;48.988;12.040;2023-11-22T11:41:25;7.22;;;4.18;;
84144;SDS011;74264;48.988;12.040;2023-11-22T11:43:54;5.78;;;4.55;;
84144;SDS011;74264;48.988;12.040;2023-11-22T11:46:21;4.93;;;4.53;;
84144;SDS011;74264;48.988;12.040;2023-11-22T11:48:54;4.25;;;3.95;;
84144;SDS011;74264;48.988;12.040;2023-11-22T11:51:24;4.50;;;4.10;;
84144;SDS011;74264;48.988;12.040;2023-11-22T11:53:51;5.78;;;4.53;;
84144;SDS011;74264;48.988;12.040;2023-11-22T11:56:17;4.63;;;4.20;;
84144;SDS011;74264;48.988;12.040;2023-11-22T11:58:44;5.55;;;4.57;;
84144;SDS011;74264;48.988;12.040;2023-11-22T12:01:14;6.22;;;3.63;;
84144;SDS011;74264;48.988;12.040;2023-11-22T12:03:42;4.07;;;3.67;;
84144;SDS011;74264;48.988;12.040;2023-11-22T12:06:09;7.30;;;4.35;;
84144;SDS011;74264;48.988;12.040;2023-11-22T12:08:35;4.80;;;4.40;;
84144;SDS011;74264;48.988;12.040;2023-11-22T12:11:03;5.93;;;4.28;;
84144;SDS011;74264;48.988;12.040;2023-11-22T12:13:31;3.92;;;3.72;;
84144;SDS011;74264;48.988;12.040;2023-11-22T12:15:58;5.97;;;3.80;;
84144;SDS011;74264;48.988;12.040;2023-11-22T12:18:23;4.43;;;4.13;;
84144;SDS011;74264;48.988;12.040;2023-11-22T12:20:56;4.85;;;3.88;;
84144;SDS011;74264;48.988;12.040;2023-11-22T12:23:23;5.38;;;4.45;;
84144;SDS011;74264;48.988;12.040;2023-11-22T12:25:53;4.90;;;4.40;;
84144;SDS011;74264;48.988;12.040;2023-11-22T12:28:28;4.63;;;4.22;;
84144;SDS011;74264;48.988;12.040;2023-11-22T12:31:05;5.20;;;4.75;;
84144;SDS011;74264;48.988;12.040;2023-11-22T12:33:32;5.10;;;4.57;;
84144;SDS011;74264;48.988;12.040;2023-11-22T12:35:57;5.80;;;5.13;;
84144;SDS011;74264;48.988;12.040;2023-11-22T12:38:23;8.70;;;4.70;;
84144;SDS011;74264;48.988;12.040;2023-11-22T12:40:51;6.93;;;4.78;;
84144;SDS011;74264;48.988;12.040;2023-11-22T12:43:17;4.50;;;4.18;;
84144;SDS011;74264;48.988;12.040;2023-11-22T12:45:42;8.77;;;4.40;;
84144;SDS011;74264;48.988;12.040;2023-11-22T12:48:23;4.70;;;4.30;;
84144;SDS011;74264;48.988;12.040;2023-11-22T12:50:50;5.40;;;4.75;;
84144;SDS011;74264;48.988;12.040;2023-11-22T12:53:17;5.32;;;4.63;;
84144;SDS011;74264;48.988;12.040;2023-11-22T12:55:50;5.18;;;4.70;;
84144;SDS011;74264;48.988;12.040;2023-11-22T12:58:17;4.15;;;3.85;;
84144;SDS011;74264;48.988;12.040;2023-11-22T13:00:47;7.70;;;5.05;;
84144;SDS011;74264;48.988;12.040;2023-11-22T13:03:14;4.80;;;4.35;;
84144;SDS011;74264;48.988;12.040;2023-11-22T13:05:40;4.50;;;4.15;;
84144;SDS011;74264;48.988;12.040;2023-11-22T13:08:11;6.70;;;4.53;;
84144;SDS011;74264;48.988;12.040;2023-11-22T13:10:43;4.32;;;3.92;;
84144;SDS011;74264;48.988;12.040;2023-11-22T13:13:12;4.85;;;4.45;;
84144;SDS011;74264;48.988;12.040;2023-11-22T13:15:38;5.10;;;4.13;;
84144;SDS011;74264;48.988;12.040;2023-11-22T13:18:05;8.93;;;5.00;;
84144;SDS011;74264;48.988;12.040;2023-11-22T13:20:32;13.10;;;5.68;;
84144;SDS011;74264;48.988;12.040;2023-11-22T13:22:57;7.22;;;4.78;;
84144;SDS011;74264;48.988;12.040;2023-11-22T13:25:25;5.32;;;4.63;;
84144;SDS011;74264;48.988;12.040;2023-11-22T13:27:51;6.43;;;5.45;;
84144;SDS011;74264;48.988;12.040;2023-11-22T13:30:18;7.07;;;5.30;;
84144;SDS011;74264;48.988;12.040;2023-11-22T13:32:56;6.07;;;5.13;;
84144;SDS011;74264;48.988;12.040;2023-11-22T13:35:26;9.32;;;5.82;;
84144;SDS011;74264;48.988;12.040;2023-11-22T13:37:59;7.82;;;5.63;;
84144;SDS011;74264;48.988;12.040;2023-11-22T13:40:27;5.60;;;5.07;;
84144;SDS011;74264;48.988;12.040;2023-11-22T13:42:56;5.60;;;5.10;;
84144;SDS011;74264;48.988;12.040;2023-11-22T13:45:22;6.32;;;5.68;;
84144;SDS011;74264;48.988;12.040;2023-11-22T13:47:49;6.38;;;5.45;;
84144;SDS011;74264;48.988;12.040;2023-11-22T13:50:16;6.90;;;6.20;;
84144;SDS011;74264;48.988;12.040;2023-11-22T13:52:47;6.40;;;5.80;;
84144;SDS011;74264;48.988;12.040;2023-11-22T13:55:14;7.68;;;5.88;;
84144;SDS011;74264;48.988;12.040;2023-11-22T13:57:41;6.97;;;6.28;;
84144;SDS011;74264;48.988;12.040;2023-11-22T14:00:07;7.32;;;5.85;;
84144;SDS011;74264;48.988;12.040;2023-11-22T14:02:35;8.43;;;6.78;;
84144;SDS011;74264;48.988;12.040;2023-11-22T14:05:02;7.70;;;6.57;;
84144;SDS011;74264;48.988;12.040;2023-11-22T14:07:28;7.22;;;6.22;;
84144;SDS011;74264;48.988;12.040;2023-11-22T14:09:54;9.18;;;5.40;;
84144;SDS011;74264;48.988;12.040;2023-11-22T14:12:20;7.63;;;6.00;;
84144;SDS011;74264;48.988;12.040;2023-11-22T14:14:46;6.20;;;5.60;;
84144;SDS011;74264;48.988;12.040;2023-11-22T14:17:11;8.48;;;5.80;;
84144;SDS011;74264;48.988;12.040;2023-11-22T14:19:39;9.70;;;6.10;;
84144;SDS011;74264;48.988;12.040;2023-11-22T14:22:05;7.45;;;5.97;;
84144;SDS011;74264;48.988;12.040;2023-11-22T14:24:32;8.35;;;6.35;;
84144;SDS011;74264;48.988;12.040;2023-11-22T14:27:02;7.72;;;5.80;;
84144;SDS011;74264;48.988;12.040;2023-11-22T14:29:28;7.47;;;6.13;;
84144;SDS011;74264;48.988;12.040;2023-11-22T14:31:53;5.25;;;4.85;;
84144;SDS011;74264;48.988;12.040;2023-11-22T14:34:19;6.10;;;5.38;;
84144;SDS011;74264;48.988;12.040;2023-11-22T14:36:45;5.63;;;5.07;;
84144;SDS011;74264;48.988;12.040;2023-11-22T14:39:10;7.18;;;5.38;;